Time;durP1;ratioP1;P1;durP2;ratioP2;P2;SDS_P1;SDS_P2;PMS_P1;PMS_P2;Temp;Humidity;BMP_temperature;BMP_pressure;BME280_temperature;BME280_humidity;BME280_pressure;Samples;Min_cycle;Max_cycle;Signal;HPM_P1;HPM_P2
2023/02/02 00:00:52;;;;;;;12.10;3.85;;;;;;;;;;5044826;28;20401;-46
2023/02/02 00:03:18;;;;;;;4.85;4.45;;;;;;;;;;5044775;28;20546;-45
2023/02/02 00:05:45;;;;;;;11.45;5.30;;;;;;;;;;5045560;28;20293;-45
2023/02/02 00:08:12;;;;;;;7.07;6.28;;;;;;;;;;5045094;28;20309;-46
2023/02/02 00:10:38;;;;;;;8.48;6.50;;;;;;;;;;5045304;28;20210;-46
2023/02/02 00:13:03;;;;;;;10.37;7.37;;;;;;;;;;5041874;28;20175;-45
2023/02/02 00:15:29;;;;;;;8.13;6.53;;;;;;;;;;5048053;28;20437;-46
2023/02/02 00:17:55;;;;;;;7.40;6.47;;;;;;;;;;5052472;28;20484;-46
2023/02/02 00:20:22;;;;;;;8.43;7.53;;;;;;;;;;5044615;28;20479;-45
2023/02/02 00:22:48;;;;;;;8.10;7.15;;;;;;;;;;5052441;28;20817;-45
2023/02/02 00:25:14;;;;;;;15.43;7.30;;;;;;;;;;5044236;28;20179;-45
2023/02/02 00:27:40;;;;;;;14.57;7.22;;;;;;;;;;5044355;28;20457;-45
2023/02/02 00:30:07;;;;;;;11.33;6.87;;;;;;;;;;5048729;28;20207;-46
2023/02/02 00:32:33;;;;;;;13.95;7.55;;;;;;;;;;5047546;28;20542;-46
2023/02/02 00:34:59;;;;;;;8.67;7.70;;;;;;;;;;5044218;28;20193;-46
2023/02/02 00:37:24;;;;;;;21.90;9.20;;;;;;;;;;5052439;28;20444;-44
2023/02/02 00:39:50;;;;;;;14.70;9.03;;;;;;;;;;5044207;28;20405;-45
2023/02/02 00:42:17;;;;;;;14.87;8.67;;;;;;;;;;5051384;28;20463;-45
2023/02/02 00:47:27;;;;;;;18.92;10.05;;;;;;;;;;5052417;28;20244;-45
2023/02/02 00:49:53;;;;;;;14.67;10.50;;;;;;;;;;5043931;28;20187;-45
2023/02/02 00:52:19;;;;;;;19.73;10.97;;;;;;;;;;5046400;28;20466;-45
2023/02/02 00:54:45;;;;;;;19.70;10.17;;;;;;;;;;5048187;28;20425;-45
2023/02/02 00:57:13;;;;;;;11.95;7.50;;;;;;;;;;5051962;28;20573;-45
2023/02/02 00:59:39;;;;;;;19.85;8.75;;;;;;;;;;5043850;28;20175;-45
2023/02/02 01:02:05;;;;;;;17.17;9.23;;;;;;;;;;5049821;28;20689;-45
2023/02/02 01:04:31;;;;;;;16.00;7.53;;;;;;;;;;5043605;28;20413;-45
2023/02/02 01:06:57;;;;;;;19.00;7.43;;;;;;;;;;5049479;28;20685;-45
2023/02/02 01:09:23;;;;;;;21.80;6.93;;;;;;;;;;5045934;28;20453;-45
2023/02/02 01:11:49;;;;;;;17.37;7.63;;;;;;;;;;5049363;28;20460;-45
2023/02/02 01:14:15;;;;;;;13.23;5.47;;;;;;;;;;5051550;28;20439;-45
2023/02/02 01:16:41;;;;;;;12.33;6.43;;;;;;;;;;5043096;28;20928;-45
2023/02/02 01:19:07;;;;;;;9.53;4.10;;;;;;;;;;5044287;28;20402;-45
2023/02/02 01:21:33;;;;;;;12.82;5.50;;;;;;;;;;5043220;28;20563;-45
2023/02/02 01:23:59;;;;;;;14.17;4.90;;;;;;;;;;5043460;28;20638;-45
2023/02/02 01:26:25;;;;;;;7.97;4.70;;;;;;;;;;5047912;28;20512;-45
2023/02/02 01:28:51;;;;;;;17.57;4.23;;;;;;;;;;5049645;28;20297;-45
2023/02/02 01:31:18;;;;;;;5.37;3.60;;;;;;;;;;5041662;28;20458;-45
2023/02/02 01:33:45;;;;;;;19.70;5.00;;;;;;;;;;5050699;28;20975;-45
2023/02/02 01:36:12;;;;;;;5.70;4.10;;;;;;;;;;5043809;28;20195;-46
2023/02/02 01:38:39;;;;;;;7.57;3.20;;;;;;;;;;5051648;28;20250;-46
2023/02/02 01:41:05;;;;;;;9.05;4.20;;;;;;;;;;5043014;28;20171;-45
2023/02/02 01:43:41;;;;;;;10.05;4.30;;;;;;;;;;5050752;28;20175;-46
2023/02/02 01:46:17;;;;;;;11.15;4.38;;;;;;;;;;5036329;28;20671;-45
2023/02/02 01:48:46;;;;;;;10.45;3.60;;;;;;;;;;5040500;28;20281;-45
2023/02/02 01:51:15;;;;;;;12.27;3.85;;;;;;;;;;5046648;28;20196;-45
2023/02/02 01:53:41;;;;;;;11.93;5.72;;;;;;;;;;5047698;28;20237;-45
2023/02/02 01:56:08;;;;;;;8.65;4.45;;;;;;;;;;5044533;28;20195;-46
2023/02/02 01:58:37;;;;;;;8.73;4.57;;;;;;;;;;5051088;28;20187;-46
2023/02/02 02:01:03;;;;;;;8.40;4.75;;;;;;;;;;5042749;28;20179;-48
2023/02/02 02:03:31;;;;;;;17.65;5.50;;;;;;;;;;5043754;28;20201;-49
2023/02/02 02:05:59;;;;;;;22.10;7.38;;;;;;;;;;5050240;28;20234;-45
2023/02/02 02:08:46;;;;;;;17.20;7.47;;;;;;;;;;5050422;28;20182;-46
2023/02/02 02:11:13;;;;;;;9.77;6.80;;;;;;;;;;5051105;28;20467;-45
2023/02/02 02:16:29;;;;;;;12.75;7.22;;;;;;;;;;5051262;28;20503;-46
2023/02/02 02:19:01;;;;;;;17.25;9.20;;;;;;;;;;5031429;28;20172;-45
2023/02/02 02:27:17;;;;;;;29.30;9.80;;;;;;;;;;5051195;28;20218;-45
2023/02/02 02:29:43;;;;;;;17.20;10.80;;;;;;;;;;5050936;28;20233;-45
2023/02/02 02:32:09;;;;;;;27.53;11.60;;;;;;;;;;5051062;28;20449;-46
2023/02/02 02:34:41;;;;;;;14.70;8.77;;;;;;;;;;5050979;28;20417;-45
2023/02/02 02:37:09;;;;;;;22.35;10.57;;;;;;;;;;5051045;28;20504;-45
2023/02/02 02:39:42;;;;;;;18.92;10.35;;;;;;;;;;5051107;28;20168;-46
2023/02/02 02:42:14;;;;;;;32.10;10.85;;;;;;;;;;5050770;28;20172;-46
2023/02/02 02:44:41;;;;;;;25.92;12.23;;;;;;;;;;5051051;28;20184;-45
2023/02/02 02:47:07;;;;;;;29.83;12.00;;;;;;;;;;5050973;28;20262;-46
2023/02/02 02:49:41;;;;;;;21.27;11.32;;;;;;;;;;5051059;28;20177;-46
2023/02/02 02:52:07;;;;;;;32.58;10.80;;;;;;;;;;5050802;28;20203;-46
2023/02/02 02:54:35;;;;;;;18.73;9.60;;;;;;;;;;5050732;28;20183;-46
2023/02/02 02:57:07;;;;;;;26.23;12.90;;;;;;;;;;5053999;28;20440;-45
2023/02/02 02:59:48;;;;;;;29.23;11.57;;;;;;;;;;5054747;28;20639;-45
2023/02/02 03:02:27;;;;;;;34.90;12.50;;;;;;;;;;5054648;28;20412;-46
2023/02/02 03:05:07;;;;;;;24.85;9.23;;;;;;;;;;5054389;28;20170;-45
2023/02/02 03:07:56;;;;;;;32.40;6.60;;;;;;;;;;5054458;28;20177;-45
2023/02/02 03:10:24;;;;;;;19.80;8.77;;;;;;;;;;5041833;28;20428;-46
2023/02/02 03:12:51;;;;;;;25.20;10.40;;;;;;;;;;5054277;28;20427;-45
2023/02/02 03:15:18;;;;;;;14.43;5.70;;;;;;;;;;5054075;28;20167;-46
2023/02/02 03:17:45;;;;;;;15.75;6.93;;;;;;;;;;5054062;28;20186;-45
2023/02/02 03:20:11;;;;;;;14.07;8.40;;;;;;;;;;5054232;28;20175;-45
2023/02/02 03:22:37;;;;;;;15.05;6.57;;;;;;;;;;5053985;28;20402;-46
2023/02/02 03:25:03;;;;;;;18.27;7.10;;;;;;;;;;5051912;28;20262;-45
2023/02/02 03:27:29;;;;;;;12.53;5.60;;;;;;;;;;5052033;28;20406;-45
2023/02/02 03:29:55;;;;;;;11.20;5.47;;;;;;;;;;5051575;28;20423;-46
2023/02/02 03:32:21;;;;;;;9.63;5.80;;;;;;;;;;5051404;28;20681;-45
2023/02/02 03:34:47;;;;;;;18.60;5.43;;;;;;;;;;5052294;28;20401;-45
2023/02/02 03:37:13;;;;;;;23.13;5.60;;;;;;;;;;5046629;28;20929;-45
2023/02/02 03:39:39;;;;;;;11.67;4.70;;;;;;;;;;5045654;28;20441;-45
2023/02/02 03:42:05;;;;;;;10.03;4.70;;;;;;;;;;5049852;28;20405;-46
2023/02/02 03:44:31;;;;;;;16.50;4.75;;;;;;;;;;5045452;28;20418;-45
2023/02/02 03:46:57;;;;;;;11.13;4.30;;;;;;;;;;5053264;28;20303;-46
2023/02/02 03:49:23;;;;;;;19.37;4.93;;;;;;;;;;5053585;28;20412;-47
2023/02/02 03:51:49;;;;;;;19.13;4.73;;;;;;;;;;5053610;28;20891;-49
2023/02/02 03:54:15;;;;;;;9.50;4.80;;;;;;;;;;5053262;28;20764;-49
2023/02/02 03:56:40;;;;;;;11.93;5.70;;;;;;;;;;5053423;28;20785;-49
2023/02/02 03:59:06;;;;;;;10.47;4.90;;;;;;;;;;5053285;28;20498;-47
2023/02/02 04:01:32;;;;;;;11.13;5.70;;;;;;;;;;5053174;28;20460;-49
2023/02/02 04:03:58;;;;;;;12.40;5.87;;;;;;;;;;5053184;28;20413;-48
2023/02/02 04:06:25;;;;;;;14.83;4.97;;;;;;;;;;5052873;28;20432;-47
2023/02/02 04:08:51;;;;;;;10.55;5.75;;;;;;;;;;5052714;28;20463;-47
2023/02/02 04:11:17;;;;;;;7.47;5.50;;;;;;;;;;5053119;28;20206;-47
2023/02/02 04:13:44;;;;;;;16.33;6.78;;;;;;;;;;5052843;28;20199;-47
2023/02/02 04:16:11;;;;;;;6.85;5.45;;;;;;;;;;5053061;28;20195;-49
2023/02/02 04:18:37;;;;;;;16.50;7.13;;;;;;;;;;5053075;28;20179;-49
2023/02/02 04:21:03;;;;;;;15.10;7.13;;;;;;;;;;5053107;28;20217;-49
2023/02/02 04:23:29;;;;;;;9.77;6.72;;;;;;;;;;5052879;28;20536;-47
2023/02/02 04:25:56;;;;;;;12.30;6.70;;;;;;;;;;5052727;28;20187;-50
2023/02/02 04:28:22;;;;;;;15.05;7.57;;;;;;;;;;5052677;28;20557;-48
2023/02/02 04:30:48;;;;;;;14.05;8.38;;;;;;;;;;5052779;28;20565;-48
2023/02/02 04:33:14;;;;;;;17.27;8.82;;;;;;;;;;5052908;28;20202;-48
2023/02/02 04:35:42;;;;;;;18.50;8.40;;;;;;;;;;5052469;28;20183;-49
2023/02/02 04:38:08;;;;;;;15.38;9.65;;;;;;;;;;5052720;28;20882;-50
2023/02/02 04:40:34;;;;;;;21.17;12.07;;;;;;;;;;5052665;28;20170;-47
2023/02/02 04:43:00;;;;;;;28.13;14.20;;;;;;;;;;5052430;28;20167;-49
2023/02/02 04:45:25;;;;;;;28.40;13.80;;;;;;;;;;5052254;28;20186;-47
2023/02/02 04:47:51;;;;;;;42.10;17.37;;;;;;;;;;5052540;28;20402;-50
2023/02/02 04:50:17;;;;;;;47.77;18.67;;;;;;;;;;5052587;28;20393;-49
2023/02/02 04:52:43;;;;;;;46.00;18.20;;;;;;;;;;5052407;28;20924;-48
2023/02/02 04:55:09;;;;;;;56.57;21.80;;;;;;;;;;5052006;28;20406;-49
2023/02/02 04:57:35;;;;;;;53.90;22.93;;;;;;;;;;5051950;28;20445;-49
2023/02/02 05:00:01;;;;;;;47.13;23.93;;;;;;;;;;5052562;28;20901;-49
2023/02/02 05:02:27;;;;;;;47.07;18.90;;;;;;;;;;5052884;28;20904;-46
2023/02/02 05:04:53;;;;;;;55.17;20.30;;;;;;;;;;5051950;28;20760;-47
2023/02/02 05:07:19;;;;;;;40.13;18.80;;;;;;;;;;5052233;28;20859;-46
2023/02/02 05:09:45;;;;;;;46.07;17.00;;;;;;;;;;5052073;28;20406;-46
2023/02/02 05:12:11;;;;;;;45.47;16.23;;;;;;;;;;5051897;28;20969;-47
2023/02/02 05:14:37;;;;;;;25.33;13.90;;;;;;;;;;5051697;28;20896;-46
2023/02/02 05:17:03;;;;;;;41.97;14.17;;;;;;;;;;5052227;28;20930;-46
2023/02/02 05:19:29;;;;;;;39.33;14.47;;;;;;;;;;5051829;28;20893;-46
2023/02/02 05:21:55;;;;;;;36.80;13.63;;;;;;;;;;5051921;28;20878;-46
2023/02/02 05:24:21;;;;;;;32.20;13.10;;;;;;;;;;5051706;28;20770;-47
2023/02/02 05:26:46;;;;;;;27.70;14.40;;;;;;;;;;5051616;28;20425;-46
2023/02/02 05:29:12;;;;;;;41.37;14.27;;;;;;;;;;5051897;28;21064;-46
2023/02/02 05:31:38;;;;;;;51.30;14.77;;;;;;;;;;5051804;28;20838;-46
2023/02/02 05:34:05;;;;;;;40.13;13.27;;;;;;;;;;5051664;28;20823;-46
2023/02/02 05:36:31;;;;;;;35.20;12.65;;;;;;;;;;5051696;28;20799;-46
2023/02/02 05:38:59;;;;;;;31.25;12.40;;;;;;;;;;5051702;28;20224;-47
2023/02/02 05:41:25;;;;;;;31.52;11.07;;;;;;;;;;5051506;28;20221;-46
2023/02/02 05:43:51;;;;;;;49.57;11.83;;;;;;;;;;5051818;28;20183;-47
2023/02/02 05:46:17;;;;;;;31.93;10.63;;;;;;;;;;5051596;28;20819;-46
2023/02/02 05:48:43;;;;;;;37.77;12.07;;;;;;;;;;5051569;28;20768;-46
2023/02/02 05:51:15;;;;;;;37.50;11.70;;;;;;;;;;5051515;28;20536;-46
2023/02/02 05:53:43;;;;;;;32.28;12.35;;;;;;;;;;5051417;28;20393;-46
2023/02/02 05:56:09;;;;;;;34.70;11.00;;;;;;;;;;5051119;28;20194;-46
2023/02/02 05:58:34;;;;;;;27.30;12.30;;;;;;;;;;5051408;28;20672;-47
2023/02/02 06:01:01;;;;;;;45.07;13.17;;;;;;;;;;5051499;28;20889;-46
2023/02/02 06:03:27;;;;;;;24.88;11.07;;;;;;;;;;5051444;28;20909;-46
2023/02/02 06:05:53;;;;;;;23.83;11.23;;;;;;;;;;5051206;28;20235;-46
2023/02/02 06:08:19;;;;;;;38.77;12.17;;;;;;;;;;5051286;28;20422;-46
2023/02/02 06:10:44;;;;;;;29.87;11.60;;;;;;;;;;5051530;28;20498;-46
2023/02/02 06:13:10;;;;;;;23.90;10.43;;;;;;;;;;5051275;28;20455;-46
2023/02/02 06:15:36;;;;;;;30.90;11.10;;;;;;;;;;5051146;28;20413;-46
2023/02/02 06:18:05;;;;;;;17.92;9.50;;;;;;;;;;5051594;28;20481;-47
2023/02/02 06:20:31;;;;;;;28.27;11.35;;;;;;;;;;5051317;28;20250;-47
2023/02/02 06:22:57;;;;;;;31.87;11.03;;;;;;;;;;5051167;28;20218;-48
2023/02/02 06:25:23;;;;;;;36.57;10.77;;;;;;;;;;5050842;28;20429;-47
2023/02/02 06:27:49;;;;;;;36.50;12.20;;;;;;;;;;5051156;28;20397;-47
2023/02/02 06:30:15;;;;;;;21.67;11.05;;;;;;;;;;5051840;28;20405;-46
2023/02/02 06:32:41;;;;;;;39.10;12.55;;;;;;;;;;5055125;28;20206;-46
2023/02/02 06:35:07;;;;;;;44.17;11.15;;;;;;;;;;5054718;28;20729;-46
2023/02/02 06:37:33;;;;;;;28.75;11.05;;;;;;;;;;5054851;28;20182;-46
2023/02/02 06:39:59;;;;;;;26.37;11.50;;;;;;;;;;5050838;28;20643;-46
2023/02/02 06:42:25;;;;;;;32.63;11.43;;;;;;;;;;5048319;28;20421;-46
2023/02/02 06:44:51;;;;;;;29.87;12.00;;;;;;;;;;5049251;28;20175;-47
2023/02/02 06:47:17;;;;;;;32.93;13.40;;;;;;;;;;5054581;28;20437;-46
2023/02/02 06:49:43;;;;;;;31.93;13.23;;;;;;;;;;5048965;28;20422;-46
2023/02/02 06:52:09;;;;;;;30.23;13.37;;;;;;;;;;5046878;28;20449;-46
2023/02/02 06:54:35;;;;;;;33.67;11.90;;;;;;;;;;5049398;28;20691;-46
2023/02/02 06:57:01;;;;;;;32.47;13.63;;;;;;;;;;5047835;28;20925;-46
2023/02/02 06:59:27;;;;;;;30.90;12.37;;;;;;;;;;5054268;28;20413;-46
2023/02/02 07:01:53;;;;;;;32.27;13.60;;;;;;;;;;5052178;28;20984;-46
2023/02/02 07:04:19;;;;;;;26.27;11.80;;;;;;;;;;5042397;28;20410;-46
2023/02/02 07:06:45;;;;;;;34.78;11.43;;;;;;;;;;5050542;28;20444;-47
2023/02/02 07:09:11;;;;;;;35.25;13.30;;;;;;;;;;5047334;28;20197;-46
2023/02/02 07:11:37;;;;;;;37.07;12.13;;;;;;;;;;5036208;28;20220;-47
2023/02/02 07:14:03;;;;;;;29.70;13.77;;;;;;;;;;5048002;28;20477;-46
2023/02/02 07:16:29;;;;;;;23.42;11.38;;;;;;;;;;5046957;28;20513;-46
2023/02/02 07:18:56;;;;;;;23.33;11.80;;;;;;;;;;5046519;28;20167;-48
2023/02/02 07:21:23;;;;;;;37.07;12.97;;;;;;;;;;5047782;28;20223;-46
2023/02/02 07:23:50;;;;;;;30.40;13.47;;;;;;;;;;5051745;28;20410;-46
2023/02/02 07:26:16;;;;;;;32.73;13.03;;;;;;;;;;5053705;28;20429;-47
2023/02/02 07:28:43;;;;;;;36.75;13.55;;;;;;;;;;5045543;28;20406;-47
2023/02/02 07:31:25;;;;;;;29.95;13.05;;;;;;;;;;5045443;28;20199;-47
2023/02/02 07:33:51;;;;;;;30.70;14.83;;;;;;;;;;5045067;28;20656;-46
2023/02/02 07:36:18;;;;;;;38.80;13.35;;;;;;;;;;5045298;28;20433;-47
2023/02/02 07:38:45;;;;;;;23.50;12.30;;;;;;;;;;5046033;28;20569;-47
2023/02/02 07:41:11;;;;;;;43.67;14.03;;;;;;;;;;5048576;28;20267;-46
2023/02/02 07:43:37;;;;;;;33.07;13.33;;;;;;;;;;5049227;28;20790;-48
2023/02/02 07:46:06;;;;;;;25.83;12.83;;;;;;;;;;5049045;28;20440;-46
2023/02/02 07:48:32;;;;;;;23.90;12.00;;;;;;;;;;5049064;28;20449;-47
2023/02/02 07:50:59;;;;;;;45.13;13.67;;;;;;;;;;5053311;28;20643;-46
2023/02/02 07:53:25;;;;;;;30.80;11.77;;;;;;;;;;5053488;28;20817;-47
2023/02/02 07:55:51;;;;;;;31.77;14.63;;;;;;;;;;5045060;28;20493;-46
2023/02/02 07:58:17;;;;;;;29.40;12.70;;;;;;;;;;5047926;28;20434;-46
2023/02/02 08:00:43;;;;;;;33.77;12.97;;;;;;;;;;5042080;28;20421;-46
2023/02/02 08:03:11;;;;;;;32.53;11.00;;;;;;;;;;5048860;28;20418;-47
2023/02/02 08:05:36;;;;;;;49.40;13.63;;;;;;;;;;5049134;28;20429;-46
2023/02/02 08:08:03;;;;;;;35.40;14.20;;;;;;;;;;5045001;28;20398;-47
2023/02/02 08:10:28;;;;;;;25.83;12.20;;;;;;;;;;5052201;28;20967;-46
2023/02/02 08:12:54;;;;;;;34.97;13.50;;;;;;;;;;5044694;28;20467;-46
2023/02/02 08:15:21;;;;;;;28.33;12.53;;;;;;;;;;5051484;28;20516;-46
2023/02/02 08:17:48;;;;;;;26.23;11.40;;;;;;;;;;5044509;28;20426;-47
2023/02/02 08:20:15;;;;;;;27.30;12.30;;;;;;;;;;5048030;28;20419;-46
2023/02/02 08:22:41;;;;;;;25.83;11.93;;;;;;;;;;5049626;28;20187;-46
2023/02/02 08:25:07;;;;;;;46.57;15.20;;;;;;;;;;5044581;28;20917;-46
2023/02/02 08:27:33;;;;;;;34.77;12.73;;;;;;;;;;5044574;28;20411;-47
2023/02/02 08:29:59;;;;;;;31.13;14.45;;;;;;;;;;5044184;28;20417;-46
2023/02/02 08:32:25;;;;;;;31.93;12.10;;;;;;;;;;5044745;28;20230;-46
2023/02/02 08:34:51;;;;;;;38.43;14.60;;;;;;;;;;5049997;28;20411;-46
2023/02/02 08:37:17;;;;;;;29.43;12.80;;;;;;;;;;5047236;28;20453;-47
2023/02/02 08:39:43;;;;;;;39.50;15.30;;;;;;;;;;5048339;28;20445;-46
2023/02/02 08:42:09;;;;;;;28.93;14.37;;;;;;;;;;5051625;28;20442;-46
2023/02/02 08:44:35;;;;;;;25.83;12.97;;;;;;;;;;5052012;28;20564;-46
2023/02/02 08:47:01;;;;;;;39.23;13.10;;;;;;;;;;5050925;28;20434;-47
2023/02/02 08:49:27;;;;;;;27.47;13.50;;;;;;;;;;5052510;28;20890;-47
2023/02/02 08:51:53;;;;;;;26.90;13.60;;;;;;;;;;5052592;28;20895;-46
2023/02/02 08:54:19;;;;;;;37.50;15.60;;;;;;;;;;5050541;28;20858;-46
2023/02/02 08:56:48;;;;;;;27.60;13.23;;;;;;;;;;5056584;28;20785;-43
2023/02/02 08:59:14;;;;;;;30.50;15.00;;;;;;;;;;5034107;28;20528;-43
2023/02/02 09:01:40;;;;;;;32.60;14.77;;;;;;;;;;5052146;28;20516;-43
2023/02/02 09:04:07;;;;;;;33.43;15.20;;;;;;;;;;5051978;28;20407;-49
2023/02/02 09:06:33;;;;;;;22.40;13.10;;;;;;;;;;5052101;28;20954;-43
2023/02/02 09:08:59;;;;;;;36.00;15.27;;;;;;;;;;5052098;28;20496;-44
2023/02/02 09:11:25;;;;;;;31.87;14.90;;;;;;;;;;5051830;28;20505;-42
2023/02/02 09:13:55;;;;;;;29.43;15.60;;;;;;;;;;5051295;28;20490;-43
2023/02/02 09:16:22;;;;;;;27.30;14.97;;;;;;;;;;5051239;28;20426;-43
2023/02/02 09:18:48;;;;;;;29.57;17.87;;;;;;;;;;5051158;28;20406;-43
2023/02/02 09:21:14;;;;;;;29.63;15.57;;;;;;;;;;5051383;28;20778;-43
2023/02/02 09:23:41;;;;;;;32.13;15.53;;;;;;;;;;5052102;28;20408;-45
2023/02/02 09:26:15;;;;;;;28.50;15.87;;;;;;;;;;5051741;28;20430;-44
2023/02/02 09:28:42;;;;;;;31.63;15.40;;;;;;;;;;5051825;28;20418;-44
2023/02/02 09:31:09;;;;;;;33.67;17.60;;;;;;;;;;5050678;28;20458;-44
2023/02/02 09:33:35;;;;;;;26.23;13.57;;;;;;;;;;5050603;28;20410;-48
2023/02/02 09:36:19;;;;;;;37.27;17.13;;;;;;;;;;5050129;28;20514;-45
2023/02/02 09:38:45;;;;;;;28.83;15.60;;;;;;;;;;5050472;28;20977;-44
2023/02/02 09:41:11;;;;;;;31.80;16.90;;;;;;;;;;5050493;28;20422;-45
2023/02/02 09:43:59;;;;;;;32.40;14.67;;;;;;;;;;5050824;28;20456;-45
2023/02/02 09:46:36;;;;;;;33.47;17.40;;;;;;;;;;5050120;28;21005;-44
2023/02/02 09:49:06;;;;;;;38.97;19.33;;;;;;;;;;5049333;28;20907;-43
2023/02/02 09:51:35;;;;;;;33.77;17.67;;;;;;;;;;5049529;28;20456;-44
2023/02/02 09:54:19;;;;;;;31.80;17.83;;;;;;;;;;5049734;28;20419;-46
2023/02/02 09:56:49;;;;;;;36.73;19.03;;;;;;;;;;5049763;28;21038;-44
2023/02/02 09:59:20;;;;;;;30.97;17.80;;;;;;;;;;5049671;28;20407;-44
2023/02/02 10:01:47;;;;;;;29.13;18.03;;;;;;;;;;5049295;28;20441;-43
2023/02/02 10:04:17;;;;;;;32.93;19.70;;;;;;;;;;5049468;28;20397;-46
2023/02/02 10:06:45;;;;;;;35.50;21.20;;;;;;;;;;5054418;28;20898;-46
2023/02/02 10:09:23;;;;;;;40.97;20.70;;;;;;;;;;5055629;28;20471;-46
2023/02/02 10:11:52;;;;;;;25.47;16.60;;;;;;;;;;5055264;28;20457;-46
2023/02/02 10:14:39;;;;;;;35.50;18.60;;;;;;;;;;5054971;28;20399;-46
2023/02/02 10:17:21;;;;;;;29.50;16.00;;;;;;;;;;5004920;28;20870;-46
2023/02/02 10:19:48;;;;;;;27.93;15.60;;;;;;;;;;5055134;28;20975;-47
2023/02/02 10:22:17;;;;;;;35.65;18.27;;;;;;;;;;5055032;28;20916;-47
2023/02/02 10:24:43;;;;;;;43.13;19.40;;;;;;;;;;5054470;28;20626;-46
2023/02/02 10:27:17;;;;;;;39.63;20.90;;;;;;;;;;5055174;28;20934;-46
2023/02/02 10:29:51;;;;;;;29.47;17.27;;;;;;;;;;5055128;28;20451;-46
2023/02/02 10:32:21;;;;;;;42.90;20.63;;;;;;;;;;5055402;28;21102;-48
2023/02/02 10:34:50;;;;;;;36.60;18.87;;;;;;;;;;5054749;28;20912;-48
2023/02/02 10:37:26;;;;;;;50.43;24.33;;;;;;;;;;5054699;28;20426;-49
2023/02/02 10:40:07;;;;;;;50.00;21.93;;;;;;;;;;5054707;28;20437;-48
2023/02/02 10:45:50;;;;;;;55.20;27.90;;;;;;;;;;5012711;28;20526;-49
2023/02/02 10:48:19;;;;;;;47.90;21.70;;;;;;;;;;5054832;28;20400;-47
2023/02/02 10:50:47;;;;;;;49.67;24.97;;;;;;;;;;5054465;28;20422;-48
2023/02/02 10:53:14;;;;;;;70.13;27.03;;;;;;;;;;5054652;28;20410;-50
2023/02/02 10:55:45;;;;;;;48.73;24.90;;;;;;;;;;5054268;28;20431;-48
2023/02/02 10:58:11;;;;;;;45.17;23.90;;;;;;;;;;5054387;28;20517;-47
2023/02/02 11:00:52;;;;;;;48.47;25.80;;;;;;;;;;5054350;28;20433;-46
2023/02/02 11:03:19;;;;;;;53.37;24.77;;;;;;;;;;5054536;28;20969;-46
2023/02/02 11:08:41;;;;;;;46.37;24.00;;;;;;;;;;5054470;28;20460;-45
2023/02/02 11:11:17;;;;;;;53.20;23.43;;;;;;;;;;5054091;28;20514;-45
2023/02/02 11:13:47;;;;;;;54.60;24.20;;;;;;;;;;5054668;28;20400;-46
2023/02/02 11:16:16;;;;;;;44.47;21.87;;;;;;;;;;5053582;28;20470;-46
2023/02/02 11:18:42;;;;;;;51.53;21.00;;;;;;;;;;5054139;28;20464;-46
2023/02/02 11:21:18;;;;;;;56.13;21.70;;;;;;;;;;5053842;28;20420;-46
2023/02/02 11:23:53;;;;;;;46.40;22.00;;;;;;;;;;5054169;28;20409;-45
2023/02/02 11:26:19;;;;;;;43.40;22.27;;;;;;;;;;5053534;28;20938;-46
2023/02/02 11:28:47;;;;;;;42.47;20.53;;;;;;;;;;5053308;28;20409;-46
2023/02/02 11:31:13;;;;;;;42.50;23.80;;;;;;;;;;5053131;28;20556;-49
2023/02/02 11:33:39;;;;;;;44.63;21.90;;;;;;;;;;5053467;28;20430;-47
2023/02/02 11:36:06;;;;;;;47.73;21.83;;;;;;;;;;5052978;28;20433;-45
2023/02/02 11:38:32;;;;;;;38.00;20.90;;;;;;;;;;5052861;28;20911;-48
2023/02/02 11:41:01;;;;;;;45.97;21.23;;;;;;;;;;5051980;28;20469;-49
2023/02/02 11:43:40;;;;;;;39.17;19.07;;;;;;;;;;5053250;28;20481;-43
2023/02/02 11:46:07;;;;;;;51.13;20.63;;;;;;;;;;5052629;28;20441;-44
2023/02/02 11:48:35;;;;;;;48.37;21.00;;;;;;;;;;5053158;28;20399;-43
2023/02/02 11:51:02;;;;;;;49.77;19.87;;;;;;;;;;5052794;28;20458;-44
2023/02/02 11:53:33;;;;;;;44.73;20.90;;;;;;;;;;5053196;28;20465;-44
2023/02/02 11:56:05;;;;;;;52.10;22.53;;;;;;;;;;5052493;28;20429;-43
2023/02/02 11:58:50;;;;;;;50.20;19.17;;;;;;;;;;5052662;28;20435;-42
2023/02/02 12:01:26;;;;;;;42.23;19.53;;;;;;;;;;5052389;28;20414;-44
2023/02/02 12:03:56;;;;;;;46.30;20.80;;;;;;;;;;5052790;28;20781;-44
2023/02/02 12:06:23;;;;;;;42.83;22.37;;;;;;;;;;5052296;28;20487;-44
2023/02/02 12:08:49;;;;;;;45.70;22.27;;;;;;;;;;5052574;28;20514;-43
2023/02/02 12:11:22;;;;;;;46.90;20.10;;;;;;;;;;5052444;28;20460;-43
2023/02/02 12:13:59;;;;;;;47.00;19.27;;;;;;;;;;5053029;28;20769;-48
2023/02/02 12:16:44;;;;;;;36.93;17.90;;;;;;;;;;5053020;28;20432;-43
2023/02/02 12:19:29;;;;;;;46.23;19.87;;;;;;;;;;5052696;28;20398;-44
2023/02/02 12:22:21;;;;;;;34.23;16.03;;;;;;;;;;5052530;28;20834;-48
2023/02/02 12:24:50;;;;;;;40.80;17.50;;;;;;;;;;5047971;28;20867;-44
2023/02/02 12:27:25;;;;;;;33.03;18.67;;;;;;;;;;5052422;28;20434;-43
2023/02/02 12:30:04;;;;;;;42.30;18.17;;;;;;;;;;5052003;28;20796;-48
2023/02/02 12:32:37;;;;;;;47.80;20.50;;;;;;;;;;5052400;28;20519;-44
2023/02/02 12:35:03;;;;;;;36.37;18.70;;;;;;;;;;5052294;28;20403;-45
2023/02/02 12:37:40;;;;;;;35.70;15.33;;;;;;;;;;5052481;28;20410;-44
2023/02/02 12:40:12;;;;;;;32.37;17.03;;;;;;;;;;5052365;28;20736;-46
2023/02/02 12:42:52;;;;;;;38.07;17.47;;;;;;;;;;5052435;28;20464;-44
2023/02/02 12:45:30;;;;;;;47.97;18.50;;;;;;;;;;5052225;28;20900;-43
2023/02/02 12:47:56;;;;;;;61.00;16.33;;;;;;;;;;5051382;28;20447;-43
2023/02/02 12:50:29;;;;;;;36.27;16.67;;;;;;;;;;5052351;28;20426;-45
2023/02/02 12:52:58;;;;;;;35.27;16.70;;;;;;;;;;5052138;28;20455;-46
2023/02/02 12:55:27;;;;;;;26.10;14.00;;;;;;;;;;5052064;28;20429;-47
2023/02/02 12:58:06;;;;;;;40.70;15.67;;;;;;;;;;5052116;28;20475;-46
2023/02/02 13:00:41;;;;;;;33.23;15.63;;;;;;;;;;5052145;28;20403;-46
2023/02/02 13:03:10;;;;;;;41.47;16.30;;;;;;;;;;5051902;28;20421;-46
2023/02/02 13:05:39;;;;;;;30.40;15.67;;;;;;;;;;5051441;28;20477;-47
2023/02/02 13:08:10;;;;;;;37.17;15.67;;;;;;;;;;5051853;28;20447;-46
2023/02/02 13:10:40;;;;;;;39.27;16.63;;;;;;;;;;5052017;28;20407;-46
2023/02/02 13:13:13;;;;;;;27.73;15.87;;;;;;;;;;5051840;28;20534;-47
2023/02/02 13:15:43;;;;;;;37.37;15.13;;;;;;;;;;5051647;28;20455;-46
2023/02/02 13:18:28;;;;;;;31.30;15.60;;;;;;;;;;5051807;28;20411;-48
2023/02/02 13:21:01;;;;;;;22.37;14.10;;;;;;;;;;5051936;28;20898;-47
2023/02/02 13:23:33;;;;;;;33.37;15.23;;;;;;;;;;5051874;28;20491;-48
2023/02/02 13:26:14;;;;;;;27.30;13.73;;;;;;;;;;5051046;28;20430;-47
2023/02/02 13:28:46;;;;;;;27.00;13.30;;;;;;;;;;5051857;28;20405;-47
2023/02/02 13:31:24;;;;;;;26.67;14.43;;;;;;;;;;5034175;28;21237;-47
2023/02/02 13:33:56;;;;;;;28.60;13.07;;;;;;;;;;5051963;28;20772;-46
2023/02/02 13:36:28;;;;;;;24.07;13.47;;;;;;;;;;5051361;28;20430;-46
2023/02/02 13:38:55;;;;;;;33.53;16.00;;;;;;;;;;5051775;28;20912;-47
2023/02/02 13:41:22;;;;;;;26.40;14.30;;;;;;;;;;5051462;28;20783;-47
2023/02/02 13:43:57;;;;;;;33.60;11.73;;;;;;;;;;5051564;28;20412;-47
2023/02/02 13:46:26;;;;;;;29.47;12.43;;;;;;;;;;5051248;28;20957;-47
2023/02/02 13:48:59;;;;;;;25.40;12.13;;;;;;;;;;5051445;28;20533;-46
2023/02/02 13:51:27;;;;;;;29.33;13.27;;;;;;;;;;5051452;28;20498;-46
2023/02/02 13:54:09;;;;;;;26.70;13.20;;;;;;;;;;5051478;28;20409;-46
2023/02/02 13:56:39;;;;;;;29.70;17.57;;;;;;;;;;5051201;28;20433;-46
2023/02/02 13:59:24;;;;;;;32.43;12.97;;;;;;;;;;5051167;28;20417;-46
2023/02/02 14:01:51;;;;;;;29.10;12.57;;;;;;;;;;5051524;28;20463;-47
2023/02/02 14:04:20;;;;;;;26.93;12.00;;;;;;;;;;5050500;28;20487;-45
2023/02/02 14:06:57;;;;;;;28.40;12.67;;;;;;;;;;5050626;28;20798;-47
2023/02/02 14:09:32;;;;;;;22.67;11.90;;;;;;;;;;5050759;28;20431;-45
2023/02/02 14:12:00;;;;;;;28.50;13.80;;;;;;;;;;5050852;28;20980;-48
2023/02/02 14:14:37;;;;;;;28.13;13.30;;;;;;;;;;5051000;28;20400;-48
2023/02/02 14:17:07;;;;;;;25.07;11.67;;;;;;;;;;5051020;28;20998;-47
2023/02/02 14:19:39;;;;;;;30.77;11.43;;;;;;;;;;5051262;28;20401;-43
2023/02/02 14:22:08;;;;;;;21.80;11.60;;;;;;;;;;5050801;28;20407;-45
2023/02/02 14:24:34;;;;;;;20.93;11.47;;;;;;;;;;5051114;28;20414;-43
2023/02/02 14:27:01;;;;;;;18.90;11.10;;;;;;;;;;5051416;28;20435;-43
2023/02/02 14:29:30;;;;;;;26.17;11.10;;;;;;;;;;5051101;28;20442;-43
2023/02/02 14:32:05;;;;;;;20.57;11.90;;;;;;;;;;5050894;28;20497;-47
2023/02/02 14:34:35;;;;;;;18.40;10.43;;;;;;;;;;5050553;28;20411;-44
2023/02/02 14:37:25;;;;;;;23.53;10.00;;;;;;;;;;5050999;28;20428;-44
2023/02/02 14:40:01;;;;;;;15.60;8.90;;;;;;;;;;5051656;28;20430;-43
2023/02/02 14:45:32;;;;;;;26.30;12.93;;;;;;;;;;5050989;28;20414;-43
2023/02/02 14:48:17;;;;;;;26.50;11.43;;;;;;;;;;5016830;28;20446;-44
2023/02/02 14:50:46;;;;;;;24.47;13.50;;;;;;;;;;5050933;28;20403;-43